Southeast Texas Regional Airport
KBPT : rendu visible

Aérodrome :











RETROUVEZ-NOUS SUR...

 
LOGIN :

S'inscrire | Disclaimer

   EN    FR    IT 

 









Légende :    VFR   VFR Marginal   IFR   IFR Intensif   IFR Très Intensif
Visi : 
Plafond : 
>= 8 km
>= 3000ft
5 à 8 km
1000 à 3000 ft
1500m à 5 km
500 à 1000 ft
800 à 1500m
200 à 500 ft
< 800m
< 200 ft
Symboles :   Orages  Brouillard  Fortes neiges  Fortes précipitations  Vent > 20 kt






- Altitude de l'aérodrome : 15 ft
- Code IATA : BPT


KBPT - Southeast Texas Regional

DERNIER METAR :
  • 210053Z 12010KT 10SM BKN070 19/16 A3005 RMK AO2 SLP174 T01890156

METARs EXPIRÉS :
  • 202353Z 12013KT 10SM CLR 19/16 A3002 RMK AO2 SLP167 T01890161 10267 20189 53005
  • 202253Z 12012KT 10SM CLR 21/17 A3002 RMK AO2 SLP165 T02110172

TAF KBPT
Valide du 21 à 00h jusqu'au 22 à 00h UTC


202326Z 2100/2124 13011KT P6SM SCT025 SCT250
FM211500 14012KT P6SM SCT035 BKN150
FM211800 15014G20KT P6SM BKN050



MET'MAP, la Météo Aéronautique d'un coup d'oeil ! - Copyright ORBIFLY Décembre 2007 - Disclaimer

ORBIFLY MET'MAP TEAM :

Programmation & Développement : Alexandra Zaïnal
Conception & Développement : Baudouin d'Aumeries
Co-Programmation & Développement : Marc-Olivier Méhu
Soutien technique & logistique : Manuel Goepfert

Contact : metmap@orbifly.com




SOURCES & CREDITS :

   NOAA       Earth
Advisory